Airfield :
LOGIN :

Register | Disclaimer

   EN    FR    IT 

 










Legend :    VFR   Marginal VFR   IFR   Intensive IFR   Very Intensive IFR
Visi :
Ceiling :
>= 8 km
>= 3000ft
5 to 8 km
1000 to 3000 ft
1500m to 5 km
500 to 1000 ft
800 to 1500m
200 to 500 ft
< 800m
< 200 ft
Symbols :   Thunderstorms  Fog  Heavy snow  Heavy precipitations  Wind > 20 kt
SIGMETs :     Misc.  Thunderstorms  Icing  Turbulence  Mountain Waves  Volcanic Ashes






- Airport Elevation : 1299 ft


EDTY - Adolf Würth

CURRENT METAR :
  • 081220Z 04008KT 010V090 CAVOK 20/02 Q1024

EXPIRED METARs :
  • 081150Z 04006KT 350V080 CAVOK 20/02 Q1024
  • 081120Z 04005KT 010V080 CAVOK 20/03 Q1025
  • 081050Z 06005KT 360V120 CAVOK 19/02 Q1025
  • 081020Z 08004KT 360V120 CAVOK 18/02 Q1025
  • 080950Z 08005KT 020V110 CAVOK 17/M00 Q1026

TAF TAF EDTY
Valid from the 08 at 12:00 until the 08 at 21:00 UTC


081100Z 0812/0821 08005KT CAVOK
BECMG 0813/0815 36005KT
BECMG 0818/0820 VRB03KT



MET'MAP, your aeronautical weather chart ! - Copyright ORBIFLY December 2007 - Disclaimer

ORBIFLY MET'MAP TEAM :

Programming & Development : Alexandra Zaïnal
Concept & original design : Baudouin d'Aumeries
Assistance for programming : Marc-Olivier Méhu
Technical & hardware support : Manuel Goepfert

Contact : metmap@orbifly.com




SOURCES & CREDITS :

   NOAA